createdAt,value
2022-11-23T00:01:57.029Z,94077.45
2022-11-23T00:04:26.030Z,94077.14
2022-11-23T00:06:54.645Z,94077.27
2022-11-23T00:09:23.400Z,94088.96
2022-11-23T00:11:52.197Z,94091.98
2022-11-23T00:14:20.744Z,94098.52
2022-11-23T00:16:49.393Z,94089.67
2022-11-23T00:19:18.078Z,94086.87
2022-11-23T00:21:46.592Z,94094.91
2022-11-23T00:24:15.154Z,94083.92
2022-11-23T00:26:43.723Z,94076.31
2022-11-23T00:29:12.414Z,94085.44
2022-11-23T00:31:40.957Z,94084.81
2022-11-23T00:34:09.557Z,94078.19
2022-11-23T00:36:38.176Z,94082.58
2022-11-23T00:39:06.860Z,94089.99
2022-11-23T00:41:35.478Z,94098.08
2022-11-23T00:44:04.112Z,94090.85
2022-11-23T00:46:32.772Z,94083.72
2022-11-23T00:49:01.711Z,94084.85
2022-11-23T00:51:36.127Z,94083.72
2022-11-23T00:54:06.591Z,94092.52
2022-11-23T00:56:36.236Z,94085.23
2022-11-23T00:59:06.031Z,94079.77
2022-11-23T01:01:38.330Z,94070.86
2022-11-23T01:04:08.961Z,94072.31
2022-11-23T01:06:41.416Z,94077.94
2022-11-23T01:09:17.779Z,94065.66
2022-11-23T01:11:48.012Z,94053.94
2022-11-23T01:14:17.515Z,94067.80
2022-11-23T01:16:47.551Z,94083.46
2022-11-23T01:19:19.642Z,94085.78
2022-11-23T01:21:48.722Z,94083.20
2022-11-23T01:24:20.281Z,94091.83
2022-11-23T01:26:53.558Z,94062.50
2022-11-23T01:29:23.320Z,94062.87
2022-11-23T01:31:51.901Z,94056.84
2022-11-23T01:34:20.469Z,94054.80
2022-11-23T01:36:50.296Z,94070.15
2022-11-23T01:39:18.825Z,94085.13
2022-11-23T01:41:47.619Z,94090.62
2022-11-23T01:44:31.680Z,94084.34
2022-11-23T01:47:02.897Z,94074.21
2022-11-23T01:49:34.740Z,94057.89
2022-11-23T01:52:06.652Z,94047.45
2022-11-23T01:54:46.754Z,94064.74
2022-11-23T01:57:20.808Z,94083.50
2022-11-23T01:59:50.658Z,94087.88
2022-11-23T02:02:20.017Z,94069.08
2022-11-23T02:04:53.255Z,94077.67
2022-11-23T02:07:24.263Z,94066.84
2022-11-23T02:09:53.773Z,94062.19
2022-11-23T02:12:22.523Z,94066.77
2022-11-23T02:14:51.522Z,94052.45
2022-11-23T02:17:22.148Z,94041.86
2022-11-23T02:20:12.102Z,94041.33
2022-11-23T02:22:49.566Z,94045.98
2022-11-23T02:25:42.639Z,94043.03
2022-11-23T02:28:17.026Z,94039.97
2022-11-23T02:30:48.647Z,94049.44
2022-11-23T02:33:17.303Z,94038.86
2022-11-23T02:35:54.907Z,94046.66
2022-11-23T02:38:25.973Z,94038.11
2022-11-23T02:40:56.452Z,94031.51
2022-11-23T02:43:25.610Z,94024.55
2022-11-23T02:46:03.285Z,94010.52
2022-11-23T02:48:33.396Z,94008.97
2022-11-23T02:51:01.989Z,94008.22
2022-11-23T02:53:30.563Z,94003.78
2022-11-23T02:55:59.080Z,94005.33
2022-11-23T02:58:27.644Z,93991.67
2022-11-23T03:00:59.308Z,93959.77
2022-11-23T03:03:27.821Z,94003.55
2022-11-23T03:05:58.667Z,94012.88
2022-11-23T03:08:27.307Z,93984.97
2022-11-23T03:10:55.942Z,93976.22
2022-11-23T03:13:24.487Z,93951.61
2022-11-23T03:15:57.109Z,93965.92
2022-11-23T03:18:26.453Z,93980.93
2022-11-23T03:20:56.730Z,93958.55
2022-11-23T03:23:25.358Z,93950.56
2022-11-23T03:25:58.906Z,93982.53
2022-11-23T03:28:27.773Z,93989.52
2022-11-23T03:30:57.095Z,93967.55
2022-11-23T03:33:25.714Z,93980.93
2022-11-23T03:35:54.354Z,93981.13
2022-11-23T03:38:23.384Z,93951.36
2022-11-23T03:40:51.924Z,93952.92
2022-11-23T03:43:21.539Z,93961.02
2022-11-23T03:45:50.262Z,93962.20
2022-11-23T03:48:18.879Z,93953.89
2022-11-23T03:50:47.555Z,93957.94
2022-11-23T03:53:16.088Z,93930.45
2022-11-23T03:55:48.771Z,93930.14
2022-11-23T03:58:17.641Z,93929.23
2022-11-23T04:00:46.394Z,93932.59
2022-11-23T04:03:15.020Z,93930.72
2022-11-23T04:05:43.636Z,93926.59
2022-11-23T04:08:12.268Z,93922.59
2022-11-23T04:10:40.864Z,93950.88
2022-11-23T04:13:18.573Z,93944.18
2022-11-23T04:15:48.757Z,93946.78
2022-11-23T04:18:17.683Z,93971.84
2022-11-23T04:20:47.830Z,93957.84
2022-11-23T04:23:16.383Z,93958.31
2022-11-23T04:25:46.086Z,93954.44
2022-11-23T04:28:14.610Z,93957.23
2022-11-23T04:30:44.321Z,93959.38
2022-11-23T04:33:12.873Z,93944.97
2022-11-23T04:35:43.254Z,93951.18
2022-11-23T04:41:56.536Z,93947.09
2022-11-23T04:44:25.363Z,93960.97
2022-11-23T04:46:57.134Z,93960.31
2022-11-23T04:49:25.819Z,93962.39
2022-11-23T04:51:54.437Z,93963.15
2022-11-23T04:54:22.972Z,93963.03
2022-11-23T04:57:05.818Z,93986.69
2022-11-23T04:59:35.136Z,94000.14
2022-11-23T05:05:13.538Z,93972.55
2022-11-23T05:07:47.671Z,93976.52
2022-11-23T05:10:17.859Z,93996.22
2022-11-23T05:12:46.397Z,93997.41
2022-11-23T05:15:18.628Z,94012.11
2022-11-23T05:17:54.016Z,93986.02
2022-11-23T05:20:21.618Z,94003.93
2022-11-23T05:22:50.241Z,93988.80
2022-11-23T05:25:18.920Z,94003.75
2022-11-23T05:27:47.584Z,93990.61
2022-11-23T05:30:16.361Z,93991.92
2022-11-23T05:32:45.041Z,93946.68
2022-11-23T05:35:15.009Z,93968.70
2022-11-23T05:37:43.834Z,93962.04
2022-11-23T05:40:13.161Z,93967.62
2022-11-23T05:42:41.761Z,93967.45
2022-11-23T05:45:12.614Z,93964.66
2022-11-23T05:47:41.295Z,93968.09
2022-11-23T05:50:15.790Z,93969.14
2022-11-23T05:52:46.178Z,93962.75
2022-11-23T05:55:22.789Z,93977.28
2022-11-23T05:58:00.025Z,93989.60
2022-11-23T06:01:30.100Z,93987.66
2022-11-23T06:03:23.025Z,93986.38
2022-11-23T06:18:35.746Z,93982.77
2022-11-23T06:21:16.539Z,93988.58
2022-11-23T06:23:47.373Z,93994.78
2022-11-23T06:26:16.362Z,94001.81
2022-11-23T06:28:45.020Z,94005.13
2022-11-23T06:31:13.529Z,94006.04
2022-11-23T06:33:44.820Z,94013.66
2022-11-23T06:36:15.706Z,94005.45
2022-11-23T06:38:43.948Z,93920.70
2022-11-23T06:41:12.545Z,94018.12
2022-11-23T06:43:41.105Z,94016.42
2022-11-23T06:46:10.034Z,94006.32
2022-11-23T06:48:38.671Z,94009.88
2022-11-23T06:51:07.367Z,94004.23
2022-11-23T06:53:35.894Z,93992.49
2022-11-23T06:56:04.704Z,94000.27
2022-11-23T06:58:48.958Z,94005.20
2022-11-23T07:01:18.075Z,93995.89
2022-11-23T07:03:47.263Z,94004.06
2022-11-23T07:06:16.934Z,94013.75
2022-11-23T07:11:43.708Z,94002.87
2022-11-23T07:14:19.226Z,94002.44
2022-11-23T07:16:48.228Z,94004.81
2022-11-23T07:19:18.319Z,94008.83
2022-11-23T07:21:49.063Z,94011.47
2022-11-23T07:24:17.613Z,94011.25
2022-11-23T07:26:46.362Z,94001.34
2022-11-23T07:29:15.189Z,94008.64
2022-11-23T07:31:43.893Z,94022.38
2022-11-23T07:34:12.618Z,94039.55
2022-11-23T07:36:41.202Z,94016.59
2022-11-23T07:39:09.803Z,94001.55
2022-11-23T07:41:38.360Z,94019.17
2022-11-23T07:44:07.214Z,94040.87
2022-11-23T07:46:35.900Z,94026.81
2022-11-23T07:49:04.460Z,94002.09
2022-11-23T07:51:34.086Z,94013.31
2022-11-23T07:54:02.641Z,94014.69
2022-11-23T07:56:33.822Z,94005.80
2022-11-23T07:59:02.438Z,94007.47
2022-11-23T08:01:35.097Z,94010.78
2022-11-23T08:04:04.729Z,94012.64
2022-11-23T08:06:33.336Z,94023.84
2022-11-23T08:09:02.042Z,94016.17
2022-11-23T08:11:30.576Z,94012.28
2022-11-23T08:14:00.773Z,94018.07
2022-11-23T08:16:35.246Z,94013.58
2022-11-23T08:19:19.605Z,94016.56
2022-11-23T08:21:48.516Z,94007.68
2022-11-23T08:24:17.142Z,93998.30
2022-11-23T08:26:46.465Z,94000.45
2022-11-23T08:29:15.203Z,94001.38
2022-11-23T08:31:43.830Z,94007.34
2022-11-23T08:34:14.599Z,94002.06
2022-11-23T08:36:43.107Z,93995.48
2022-11-23T08:39:12.387Z,94009.76
2022-11-23T08:41:41.011Z,94005.61
2022-11-23T08:44:11.411Z,94004.22
2022-11-23T08:46:40.482Z,93996.76
2022-11-23T08:49:09.429Z,94006.94
2022-11-23T08:51:38.049Z,94011.11
2022-11-23T08:54:06.567Z,94003.98
2022-11-23T08:56:35.279Z,93998.27
2022-11-23T08:59:03.945Z,93997.30
2022-11-23T09:01:32.609Z,93938.88
2022-11-23T09:04:01.986Z,94006.13
2022-11-23T09:06:32.001Z,94006.20
2022-11-23T09:09:00.630Z,94011.45
2022-11-23T09:11:29.383Z,94004.05
2022-11-23T09:13:58.486Z,93996.14
2022-11-23T09:16:32.424Z,93986.36
2022-11-23T09:19:00.501Z,93985.87
2022-11-23T09:21:30.748Z,93989.38
2022-11-23T09:23:59.315Z,93988.30
2022-11-23T09:26:30.080Z,93976.70
2022-11-23T09:28:58.688Z,93953.44
2022-11-23T09:31:30.430Z,93971.52
2022-11-23T09:34:15.588Z,93978.53
2022-11-23T09:36:58.626Z,93977.78
2022-11-23T09:39:51.064Z,93976.12
2022-11-23T09:43:13.881Z,93965.36
2022-11-23T09:45:56.549Z,93971.24
2022-11-23T09:48:39.999Z,93972.08
2022-11-23T09:51:23.035Z,93972.87
2022-11-23T09:54:03.381Z,93970.41
2022-11-23T09:56:39.132Z,93973.36
2022-11-23T09:59:13.414Z,93975.33
2022-11-23T10:01:42.615Z,93971.52
2022-11-23T10:04:14.284Z,93967.68
2022-11-23T10:06:44.945Z,93945.52
2022-11-23T10:09:45.128Z,93968.80
2022-11-23T10:12:19.649Z,93969.87
2022-11-23T10:14:59.993Z,93959.56
2022-11-23T10:17:34.667Z,93963.27
2022-11-23T10:20:19.074Z,93958.88
2022-11-23T10:23:02.486Z,93962.59
2022-11-23T10:25:38.956Z,93962.69
2022-11-23T10:34:40.772Z,93963.87
2022-11-23T10:35:04.992Z,93962.50
2022-11-23T10:37:34.873Z,93958.73
2022-11-23T10:40:03.572Z,93955.52
2022-11-23T10:42:40.958Z,93951.57
2022-11-23T10:45:25.227Z,93950.92
2022-11-23T10:48:01.196Z,93951.25
2022-11-23T10:50:36.756Z,93949.98
2022-11-23T10:53:11.321Z,93942.02
2022-11-23T10:55:58.293Z,93942.96
2022-11-23T10:58:46.501Z,93946.34
2022-11-23T11:01:24.697Z,93947.84
2022-11-23T11:03:59.546Z,93941.64
2022-11-23T11:06:30.875Z,93943.59
2022-11-23T11:09:03.756Z,93951.50
2022-11-23T11:11:35.545Z,93950.75
2022-11-23T11:14:25.352Z,93942.14
2022-11-23T11:16:56.020Z,93939.64
2022-11-23T11:19:35.759Z,93931.67
2022-11-23T11:22:07.597Z,93935.86
2022-11-23T11:24:41.728Z,93939.79
2022-11-23T11:27:24.836Z,93941.97
2022-11-23T11:29:56.680Z,93944.20
2022-11-23T11:32:30.821Z,93940.91
2022-11-23T11:35:25.144Z,93935.81
2022-11-23T11:37:55.828Z,93932.31
2022-11-23T11:40:39.756Z,93934.21
2022-11-23T11:43:14.478Z,93933.66
2022-11-23T11:46:13.587Z,93925.42
2022-11-23T11:48:22.041Z,93919.66
2022-11-23T11:51:05.530Z,93922.23
2022-11-23T11:53:58.072Z,93925.83
2022-11-23T11:56:41.802Z,93929.02
2022-11-23T11:59:33.967Z,93929.84
2022-11-23T12:02:18.823Z,93926.66
2022-11-23T12:04:56.191Z,93926.23
2022-11-23T12:07:33.923Z,93924.30
2022-11-23T12:10:14.673Z,93925.50
2022-11-23T12:12:44.460Z,93928.55
2022-11-23T12:15:47.320Z,93932.08
2022-11-23T12:17:52.277Z,93926.92
2022-11-23T12:20:26.741Z,93920.16
2022-11-23T12:23:01.228Z,93920.84
2022-11-23T12:25:41.991Z,93922.09
2022-11-23T12:28:25.368Z,93919.92
2022-11-23T12:31:14.992Z,93925.45
2022-11-23T12:34:10.715Z,93919.39
2022-11-23T12:36:57.298Z,93918.02
2022-11-23T12:39:43.782Z,93916.28
2022-11-23T12:42:24.190Z,93907.58
2022-11-23T12:45:25.028Z,93905.06
2022-11-23T12:48:02.214Z,93911.52
2022-11-23T12:50:53.465Z,93909.65
2022-11-23T12:53:42.693Z,93906.59
2022-11-23T12:56:29.395Z,93906.05
2022-11-23T12:58:59.334Z,93912.74
2022-11-23T13:01:39.892Z,93918.96
2022-11-23T13:04:26.438Z,93921.19
2022-11-23T13:07:27.650Z,93920.55
2022-11-23T13:09:56.809Z,93921.78
2022-11-23T13:12:58.884Z,93916.55
2022-11-23T13:15:48.733Z,93925.36
2022-11-23T13:18:38.242Z,93922.69
2022-11-23T13:21:32.692Z,93931.72
2022-11-23T13:24:01.488Z,93921.59
2022-11-23T13:26:32.617Z,93909.28
2022-11-23T13:29:02.894Z,93919.18
2022-11-23T13:31:36.211Z,93921.66
2022-11-23T13:34:07.913Z,93934.90
2022-11-23T13:39:58.373Z,93928.19
2022-11-23T13:42:28.544Z,93933.33
2022-11-23T13:45:20.122Z,93940.13
2022-11-23T13:48:41.417Z,93946.96
2022-11-23T13:50:54.251Z,93953.19
2022-11-23T13:53:35.144Z,93951.15
2022-11-23T13:56:36.941Z,93957.78
2022-11-23T13:59:26.678Z,93961.82
2022-11-23T14:02:10.309Z,93971.54
2022-11-23T14:04:41.521Z,93976.38
2022-11-23T14:07:32.877Z,93975.46
2022-11-23T14:10:19.288Z,93971.23
2022-11-23T14:12:55.023Z,93978.30
2022-11-23T14:15:29.075Z,93977.85
2022-11-23T14:18:30.211Z,93985.14
2022-11-23T14:21:05.100Z,93973.95
2022-11-23T14:23:50.518Z,93979.95
2022-11-23T14:26:24.563Z,93979.95
2022-11-23T14:29:03.790Z,93984.77
2022-11-23T14:32:08.639Z,93984.98
2022-11-23T14:34:43.130Z,93980.77
2022-11-23T14:37:31.327Z,93984.84
2022-11-23T14:40:14.568Z,93979.86
2022-11-23T14:42:48.327Z,93981.94
2022-11-23T14:45:20.359Z,93978.55
2022-11-23T14:47:49.132Z,93974.28
2022-11-23T14:50:26.594Z,93972.94
2022-11-23T14:52:57.958Z,93977.36
2022-11-23T14:55:29.844Z,93978.39
2022-11-23T14:58:08.022Z,93983.77
2022-11-23T15:00:42.411Z,93985.58
2022-11-23T15:03:48.808Z,93982.73
2022-11-23T15:05:50.126Z,93974.27
2022-11-23T15:08:21.806Z,93979.77
2022-11-23T15:11:09.879Z,93982.27
2022-11-23T15:13:47.817Z,93989.09
2022-11-23T15:16:19.326Z,93990.11
2022-11-23T15:18:48.361Z,93988.77
2022-11-23T15:21:27.957Z,93988.63
2022-11-23T15:23:58.310Z,93991.18
2022-11-23T15:26:49.169Z,93999.16
2022-11-23T15:29:02.171Z,94000.27
2022-11-23T15:31:33.713Z,93999.55
2022-11-23T15:34:05.071Z,94000.80
2022-11-23T15:36:38.302Z,93999.95
2022-11-23T15:39:09.364Z,94001.44
2022-11-23T15:41:39.407Z,94000.17
2022-11-23T15:44:20.178Z,93999.53
2022-11-23T15:46:50.016Z,93997.31
2022-11-23T15:49:20.481Z,93995.42
2022-11-23T15:51:49.574Z,93992.74
2022-11-23T15:54:27.173Z,94001.89
2022-11-23T15:57:00.900Z,94001.20
2022-11-23T15:59:44.559Z,94003.47
2022-11-23T16:02:25.077Z,94006.52
2022-11-23T16:05:11.603Z,94017.52
2022-11-23T16:08:00.591Z,94024.14
2022-11-23T16:10:35.262Z,94026.54
2022-11-23T16:13:06.374Z,94022.88
2022-11-23T16:15:43.260Z,94016.17
2022-11-23T16:18:22.270Z,94022.23
2022-11-23T16:20:54.056Z,94025.44
2022-11-23T16:23:30.655Z,94033.17
2022-11-23T16:26:05.141Z,94028.95
2022-11-23T16:28:41.804Z,94035.27
2022-11-23T16:31:21.097Z,94043.37
2022-11-23T16:33:50.874Z,94041.97
2022-11-23T16:36:19.602Z,94049.59
2022-11-23T16:38:48.500Z,94052.02
2022-11-23T16:41:17.321Z,94056.75
2022-11-23T16:43:47.430Z,94069.19
2022-11-23T16:46:16.271Z,94066.22
2022-11-23T16:48:46.517Z,94067.20
2022-11-23T16:51:15.415Z,94071.33
2022-11-23T16:56:22.897Z,94069.12
2022-11-23T16:58:52.747Z,94080.07
2022-11-23T17:01:24.495Z,94081.06
2022-11-23T17:03:53.779Z,94074.96
2022-11-23T17:06:24.392Z,94035.79
2022-11-23T17:09:04.700Z,94075.84
2022-11-23T17:11:28.654Z,94070.81
2022-11-23T17:13:57.924Z,94072.64
2022-11-23T17:16:31.700Z,94072.05
2022-11-23T17:19:00.349Z,94070.38
2022-11-23T17:21:28.930Z,94068.17
2022-11-23T17:23:57.619Z,94073.94
2022-11-23T17:26:38.042Z,94074.47
2022-11-23T17:29:09.922Z,94081.53
2022-11-23T17:31:44.770Z,94075.09
2022-11-23T17:34:35.009Z,94080.02
2022-11-23T17:37:05.857Z,94086.02
2022-11-23T17:39:35.800Z,94090.02
2022-11-23T17:42:05.311Z,94085.09
2022-11-23T17:44:36.627Z,94080.55
2022-11-23T17:47:06.040Z,94002.11
2022-11-23T17:49:36.415Z,94089.08
2022-11-23T17:52:05.491Z,94100.16
2022-11-23T17:54:34.202Z,94103.25
2022-11-23T17:57:02.849Z,94109.34
2022-11-23T17:59:33.653Z,94112.78
2022-11-23T18:02:02.766Z,94107.25
2022-11-23T18:04:31.656Z,94108.25
2022-11-23T18:07:00.358Z,94109.95
2022-11-23T18:09:30.988Z,94112.14
2022-11-23T18:11:59.965Z,94119.05
2022-11-23T18:14:29.072Z,94115.11
2022-11-23T18:17:01.003Z,94119.68
2022-11-23T18:19:30.042Z,94120.12
2022-11-23T18:21:58.723Z,94124.66
2022-11-23T18:24:27.524Z,94127.71
2022-11-23T18:26:56.325Z,94133.81
2022-11-23T18:29:25.040Z,94147.30
2022-11-23T18:31:53.587Z,94143.86
2022-11-23T18:34:22.149Z,94133.58
2022-11-23T18:36:52.369Z,94140.61
2022-11-23T18:39:23.956Z,94144.58
2022-11-23T18:41:52.483Z,94143.42
2022-11-23T18:44:22.736Z,94149.09
2022-11-23T18:46:51.531Z,94143.01
2022-11-23T18:49:20.305Z,94144.76
2022-11-23T18:51:49.249Z,94145.09
2022-11-23T18:54:18.350Z,94150.42
2022-11-23T18:56:48.128Z,94152.74
2022-11-23T18:59:42.443Z,94146.45
2022-11-23T19:01:50.312Z,94141.94
2022-11-23T19:04:32.634Z,94140.22
2022-11-23T19:07:01.540Z,94144.97
2022-11-23T19:09:30.781Z,94144.23
2022-11-23T19:12:00.112Z,94144.23
2022-11-23T19:14:32.543Z,94146.36
2022-11-23T19:17:01.005Z,94146.19
2022-11-23T19:19:29.654Z,94142.58
2022-11-23T19:22:00.104Z,94135.73
2022-11-23T19:24:28.602Z,94146.41
2022-11-23T19:26:57.247Z,94149.83
2022-11-23T19:29:26.664Z,94149.08
2022-11-23T19:31:55.294Z,94150.61
2022-11-23T19:34:23.916Z,94152.12
2022-11-23T19:36:52.418Z,94162.75
2022-11-23T19:39:21.023Z,94165.59
2022-11-23T19:41:51.234Z,94164.27
2022-11-23T19:44:19.820Z,94158.19
2022-11-23T19:46:48.423Z,94161.98
2022-11-23T19:49:17.152Z,94169.39
2022-11-23T19:51:47.422Z,94167.11
2022-11-23T19:54:15.966Z,94168.64
2022-11-23T19:56:44.478Z,94180.79
2022-11-23T19:59:12.990Z,94181.92
2022-11-23T20:01:41.853Z,94185.91
2022-11-23T20:04:19.244Z,94179.84
2022-11-23T20:06:47.884Z,94174.71
2022-11-23T20:09:21.159Z,94187.64
2022-11-23T20:11:51.519Z,94192.19
2022-11-23T20:14:20.942Z,94179.27
2022-11-23T20:16:49.866Z,94183.84
2022-11-23T20:19:20.041Z,94185.53
2022-11-23T20:21:48.810Z,94188.19
2022-11-23T20:24:17.402Z,94197.45
2022-11-23T20:26:46.097Z,94191.16
2022-11-23T20:29:18.726Z,94191.72
2022-11-23T20:31:49.682Z,94191.86
2022-11-23T20:34:22.982Z,94200.97
2022-11-23T20:36:49.862Z,94207.25
2022-11-23T20:39:18.754Z,94216.60
2022-11-23T20:41:49.034Z,94213.58
2022-11-23T20:44:21.290Z,94205.41
2022-11-23T20:47:05.296Z,94209.22
2022-11-23T20:49:20.256Z,94205.77
2022-11-23T20:51:48.800Z,94189.02
2022-11-23T20:54:20.178Z,94208.64
2022-11-23T20:56:51.873Z,94215.52
2022-11-23T20:59:20.812Z,94223.11
2022-11-23T21:01:49.493Z,94222.95
2022-11-23T21:04:18.280Z,94223.88
2022-11-23T21:06:46.871Z,94224.84
2022-11-23T21:09:17.072Z,94223.29
2022-11-23T21:12:03.619Z,94227.22
2022-11-23T21:14:33.039Z,94228.41
2022-11-23T21:17:02.776Z,94226.34
2022-11-23T21:19:40.837Z,94228.42
2022-11-23T21:22:12.835Z,94230.14
2022-11-23T21:24:45.608Z,94229.38
2022-11-23T21:27:14.913Z,94234.44
2022-11-23T21:29:44.967Z,94225.88
2022-11-23T21:32:16.520Z,94219.62
2022-11-23T21:34:45.680Z,94215.86
2022-11-23T21:37:16.935Z,94210.51
2022-11-23T21:39:52.953Z,94219.03
2022-11-23T21:42:18.541Z,94218.61
2022-11-23T21:44:52.093Z,94216.09
2022-11-23T21:47:22.133Z,94219.92
2022-11-23T21:49:50.809Z,94218.29
2022-11-23T21:52:22.143Z,94210.03
2022-11-23T21:54:51.697Z,94226.98
2022-11-23T21:57:20.442Z,94219.96
2022-11-23T21:59:49.090Z,94218.63
2022-11-23T22:02:19.101Z,94238.05
2022-11-23T22:04:47.587Z,94230.05
2022-11-23T22:07:18.098Z,94229.71
2022-11-23T22:09:46.738Z,94233.92
2022-11-23T22:12:16.800Z,94242.41
2022-11-23T22:14:45.453Z,94234.38
2022-11-23T22:17:14.018Z,94227.36
2022-11-23T22:19:42.786Z,94226.18
2022-11-23T22:22:11.367Z,94239.16
2022-11-23T22:24:40.167Z,94243.06
2022-11-23T22:27:08.686Z,94248.45
2022-11-23T22:29:37.583Z,94242.53
2022-11-23T22:32:06.347Z,94240.65
2022-11-23T22:34:35.536Z,94242.16
2022-11-23T22:37:11.011Z,94243.05
2022-11-23T22:39:44.677Z,94246.70
2022-11-23T22:42:14.440Z,94250.13
2022-11-23T22:44:42.976Z,94248.24
2022-11-23T22:47:13.277Z,94255.66
2022-11-23T22:49:41.901Z,94251.81
2022-11-23T22:52:10.448Z,94258.37
2022-11-23T22:54:39.349Z,94255.09
2022-11-23T22:57:07.898Z,94254.58
2022-11-23T22:59:36.772Z,94258.55
2022-11-23T23:02:12.314Z,94254.33
2022-11-23T23:04:43.788Z,94253.17
2022-11-23T23:07:15.788Z,94255.13
2022-11-23T23:09:46.196Z,94260.72
2022-11-23T23:12:18.762Z,94259.23
2022-11-23T23:14:47.646Z,94255.06
2022-11-23T23:17:16.373Z,94249.54
2022-11-23T23:19:45.144Z,94247.23
2022-11-23T23:22:17.916Z,94251.56
2022-11-23T23:24:46.476Z,94257.52
2022-11-23T23:27:19.188Z,94225.23
2022-11-23T23:29:48.988Z,94267.66
2022-11-23T23:32:22.520Z,94269.07
2022-11-23T23:34:57.743Z,94275.48
2022-11-23T23:37:26.287Z,94262.25
2022-11-23T23:39:54.776Z,94263.58
2022-11-23T23:42:23.527Z,94264.64
2022-11-23T23:44:52.126Z,94259.42
2022-11-23T23:47:20.736Z,94262.17
2022-11-23T23:49:49.313Z,94258.13
2022-11-23T23:52:19.947Z,94267.06
2022-11-23T23:54:51.184Z,94258.76
2022-11-23T23:57:28.182Z,94260.67
2022-11-23T23:59:56.852Z,94253.94
